Time;durP1;ratioP1;P1;durP2;ratioP2;P2;SDS_P1;SDS_P2;PMS_P1;PMS_P2;Temp;Humidity;BMP_temperature;BMP_pressure;BME280_temperature;BME280_humidity;BME280_pressure;Samples;Min_cycle;Max_cycle;Signal;HPM_P1;HPM_P2
2022/03/23 00:00:39;;;;;;;;;54.25;42.25;;;;;14.01;36.31;102329.53;4959374;28;45391;-51
2022/03/23 00:03:05;;;;;;;;;56.75;45.00;;;;;14.00;35.76;102327.78;4959296;28;45454;-48
2022/03/23 00:05:32;;;;;;;;;56.00;44.75;;;;;13.94;36.20;102321.63;4974486;28;45336;-49
2022/03/23 00:07:58;;;;;;;;;58.25;43.75;;;;;13.96;36.23;102334.81;4960877;28;46493;-51
2022/03/23 00:10:23;;;;;;;;;56.00;43.75;;;;;13.94;36.00;102334.84;4967161;28;45310;-49
2022/03/23 00:12:49;;;;;;;;;53.25;42.75;;;;;13.91;36.25;102340.16;4966064;28;45390;-50
2022/03/23 00:15:15;;;;;;;;;53.00;42.75;;;;;13.90;35.96;102338.38;4960205;28;45497;-49
2022/03/23 00:17:41;;;;;;;;;52.50;43.25;;;;;13.87;36.45;102343.66;4959016;28;46091;-49
2022/03/23 00:20:07;;;;;;;;;52.50;42.25;;;;;13.86;36.16;102352.50;4983710;28;45589;-49
2022/03/23 00:22:32;;;;;;;;;55.50;42.25;;;;;13.82;36.38;102348.97;5008685;28;45299;-49
2022/03/23 00:24:58;;;;;;;;;53.00;44.00;;;;;13.80;36.47;102345.44;4960178;28;45434;-51
2022/03/23 00:27:24;;;;;;;;;48.75;41.50;;;;;13.79;36.15;102358.66;4960062;28;45328;-50
2022/03/23 00:29:50;;;;;;;;;52.75;43.75;;;;;13.75;36.40;102360.44;4960138;28;45400;-51
2022/03/23 00:32:15;;;;;;;;;50.25;40.00;;;;;13.74;36.56;102355.16;4960460;28;45317;-52
2022/03/23 00:34:40;;;;;;;;;53.00;42.75;;;;;13.70;36.26;102356.91;4960376;28;45490;-50
2022/03/23 00:37:06;;;;;;;;;47.00;39.00;;;;;13.71;36.52;102355.16;4960073;28;45416;-48
2022/03/23 00:39:31;;;;;;;;;49.00;40.00;;;;;13.68;36.43;102361.31;4960200;28;45362;-49
2022/03/23 00:41:57;;;;;;;;;47.75;39.00;;;;;13.67;36.22;102356.03;4960111;28;45270;-51
2022/03/23 00:44:23;;;;;;;;;49.00;38.75;;;;;13.64;36.19;102355.16;4960070;28;45294;-48
2022/03/23 00:46:48;;;;;;;;;49.50;39.75;;;;;13.64;36.25;102359.56;4960032;28;45501;-52
2022/03/23 00:49:14;;;;;;;;;43.00;35.75;;;;;13.63;36.38;102364.00;4961535;28;45352;-50
2022/03/23 00:51:40;;;;;;;;;47.50;38.00;;;;;13.60;36.35;102353.41;4954480;28;45245;-47
2022/03/23 00:54:05;;;;;;;;;48.00;38.75;;;;;13.60;36.42;102355.19;4960168;28;45674;-49
2022/03/23 00:56:31;;;;;;;;;46.25;37.75;;;;;13.59;36.36;102356.06;4959861;28;45217;-55
2022/03/23 00:58:56;;;;;;;;;46.50;37.25;;;;;13.56;36.25;102358.69;4959567;28;45296;-48
2022/03/23 01:01:22;;;;;;;;;44.75;37.00;;;;;13.56;36.55;102361.31;4960064;28;45467;-51
2022/03/23 01:03:48;;;;;;;;;41.50;35.00;;;;;13.52;35.98;102359.56;4959828;28;45437;-51
2022/03/23 01:06:15;;;;;;;;;45.25;36.50;;;;;13.50;36.28;102359.59;4959625;28;45334;-53
2022/03/23 01:08:40;;;;;;;;;43.00;35.00;;;;;13.51;36.19;102363.09;4960329;28;45541;-51
2022/03/23 01:11:06;;;;;;;;;40.00;33.50;;;;;13.48;36.09;102363.97;4959759;28;45308;-50
2022/03/23 01:13:32;;;;;;;;;43.50;36.75;;;;;13.47;36.33;102364.84;4979152;28;45319;-50
2022/03/23 01:15:57;;;;;;;;;41.25;35.00;;;;;13.47;36.13;102362.22;4977765;28;45686;-52
2022/03/23 01:18:23;;;;;;;;;44.50;35.75;;;;;13.41;35.83;102355.19;4979294;28;45363;-50
2022/03/23 01:20:48;;;;;;;;;45.50;35.75;;;;;13.42;35.96;102364.88;5041141;27;45547;-50
2022/03/23 01:23:13;;;;;;;;;45.75;37.00;;;;;13.39;35.93;102350.78;4994429;28;45460;-51
2022/03/23 01:25:39;;;;;;;;;44.75;35.75;;;;;13.40;36.06;102360.47;4977334;28;48266;-51
2022/03/23 01:28:05;;;;;;;;;47.25;38.00;;;;;13.35;35.96;102355.16;4979252;28;45356;-50
2022/03/23 01:30:30;;;;;;;;;47.75;39.00;;;;;13.36;36.21;102359.56;4978803;28;45513;-52
2022/03/23 01:32:55;;;;;;;;;43.75;36.25;;;;;13.35;36.00;102354.28;4979065;28;45206;-50
2022/03/23 01:35:21;;;;;;;;;43.75;36.75;;;;;13.33;36.05;102352.53;4964944;28;46157;-50
2022/03/23 01:37:46;;;;;;;;;47.00;39.25;;;;;13.31;36.07;102358.69;5006675;28;45263;-48
2022/03/23 01:40:12;;;;;;;;;44.00;36.00;;;;;13.30;36.16;102359.56;4965391;28;45508;-49
2022/03/23 01:42:39;;;;;;;;;49.75;40.00;;;;;13.25;36.19;102354.25;4959435;28;45319;-48
2022/03/23 01:45:06;;;;;;;;;45.50;35.25;;;;;13.26;36.06;102352.53;4959142;28;45273;-53
2022/03/23 01:47:32;;;;;;;;;42.25;35.25;;;;;13.24;36.53;102355.13;4959493;28;45325;-51
2022/03/23 01:49:58;;;;;;;;;42.75;35.50;;;;;13.22;36.32;102356.00;4959309;28;45193;-52
2022/03/23 01:52:28;;;;;;;;;44.50;36.00;;;;;13.21;36.10;102351.66;4983376;28;45245;-52
2022/03/23 01:54:53;;;;;;;;;44.75;35.25;;;;;13.17;36.05;102348.97;4985424;28;46154;-51
2022/03/23 01:57:20;;;;;;;;;41.25;35.00;;;;;13.16;36.16;102354.28;4971892;28;45385;-50
2022/03/23 01:59:46;;;;;;;;;40.50;34.50;;;;;13.14;35.84;102353.38;4985085;27;45319;-47
2022/03/23 02:02:12;;;;;;;;;40.50;35.00;;;;;13.10;36.11;102343.72;4959026;28;45268;-49
2022/03/23 02:04:38;;;;;;;;;42.50;35.50;;;;;13.11;36.08;102353.41;4985137;28;45238;-53
2022/03/23 02:07:04;;;;;;;;;45.25;33.25;;;;;13.08;36.03;102350.72;4972601;28;45310;-52
2022/03/23 02:09:31;;;;;;;;;38.25;33.75;;;;;13.05;35.94;102345.47;4958694;28;45320;-46
2022/03/23 02:11:57;;;;;;;;;45.50;33.50;;;;;13.05;36.03;102350.75;4966065;28;45535;-49
2022/03/23 02:14:23;;;;;;;;;42.50;34.00;;;;;13.02;36.10;102348.97;4976756;28;47365;-54
2022/03/23 02:16:50;;;;;;;;;38.00;34.00;;;;;12.97;36.06;102343.69;4978409;28;45334;-53
2022/03/23 02:19:17;;;;;;;;;43.75;35.50;;;;;12.98;35.95;102356.00;4978527;28;45315;-51
2022/03/23 02:21:47;;;;;;;;;36.50;32.00;;;;;12.90;35.75;102347.19;5026305;28;45543;-52
2022/03/23 02:24:14;;;;;;;;;38.50;34.75;;;;;12.91;35.99;102348.09;4978141;28;45452;-50
2022/03/23 02:26:41;;;;;;;;;35.75;31.00;;;;;12.92;35.86;102350.72;4977064;27;45468;-51
2022/03/23 02:29:07;;;;;;;;;40.00;35.00;;;;;12.90;36.05;102349.81;4978087;28;45392;-52
2022/03/23 02:31:34;;;;;;;;;34.50;32.00;;;;;12.83;36.10;102343.66;4978452;28;45351;-49
2022/03/23 02:33:59;;;;;;;;;36.50;32.00;;;;;12.82;36.03;102344.53;4978105;28;46268;-50
2022/03/23 02:36:25;;;;;;;;;39.75;32.50;;;;;12.81;36.22;102350.69;4969598;28;45268;-48
2022/03/23 02:38:50;;;;;;;;;39.00;32.00;;;;;12.78;36.22;102345.41;4974021;28;45240;-49
2022/03/23 02:41:15;;;;;;;;;36.00;32.25;;;;;12.77;35.80;102355.97;4978310;28;45348;-49
2022/03/23 02:43:41;;;;;;;;;40.50;31.50;;;;;12.72;36.05;102348.03;4977627;28;46087;-51
2022/03/23 02:46:15;;;;;;;;;38.75;32.00;;;;;12.71;35.88;102348.91;4978448;28;45216;-49
2022/03/23 02:48:41;;;;;;;;;36.50;32.75;;;;;12.68;36.15;102347.16;4975207;28;45205;-48
2022/03/23 02:51:06;;;;;;;;;41.00;33.75;;;;;12.63;36.06;102343.63;4966622;28;45325;-52
2022/03/23 03:02:18;;;;;;;;;35.50;30.25;;;;;12.52;36.06;102363.81;4960672;28;45319;-47
2022/03/23 03:04:44;;;;;;;;;39.25;32.25;;;;;12.47;35.71;102362.91;4958360;28;46893;-48
2022/03/23 03:07:09;;;;;;;;;35.00;31.50;;;;;12.42;35.87;102364.66;4959023;28;45335;-48
2022/03/23 03:09:35;;;;;;;;;34.00;31.50;;;;;12.39;36.13;102372.53;4967855;28;45439;-48
2022/03/23 03:12:01;;;;;;;;;40.00;30.75;;;;;12.35;35.92;102369.91;4977878;28;45500;-51
2022/03/23 03:14:27;;;;;;;;;33.50;32.00;;;;;12.32;36.21;102371.63;4976519;28;45343;-47
2022/03/23 03:16:53;;;;;;;;;35.50;32.25;;;;;12.29;36.13;102374.25;4977840;28;45408;-48
2022/03/23 03:19:19;;;;;;;;;39.25;33.50;;;;;12.26;36.15;102374.25;4977679;28;45243;-47
2022/03/23 03:21:44;;;;;;;;;37.75;32.25;;;;;12.24;36.12;102382.16;5027399;28;45701;-50
2022/03/23 03:24:10;;;;;;;;;37.75;31.75;;;;;12.21;36.08;102382.13;4976020;28;47133;-48
2022/03/23 03:26:35;;;;;;;;;38.50;32.25;;;;;12.18;36.02;102388.25;4977743;28;45331;-49
2022/03/23 03:29:02;;;;;;;;;35.00;30.75;;;;;12.16;35.87;102382.13;4976101;28;45289;-48
2022/03/23 03:31:27;;;;;;;;;30.50;29.25;;;;;12.13;35.91;102386.47;4977545;28;45612;-49
2022/03/23 03:33:52;;;;;;;;;32.75;30.25;;;;;12.10;35.97;102387.34;4977280;28;46612;-47
2022/03/23 03:36:18;;;;;;;;;36.25;31.75;;;;;12.08;36.05;102388.22;4976257;28;45320;-49
2022/03/23 03:38:44;;;;;;;;;33.25;31.25;;;;;12.01;35.88;102385.53;4977518;28;45327;-47
2022/03/23 03:41:10;;;;;;;;;37.25;31.00;;;;;12.01;36.07;102387.28;4976020;28;45419;-47
2022/03/23 03:43:36;;;;;;;;;34.00;30.50;;;;;11.97;35.84;102389.00;4975547;28;45407;-52
2022/03/23 03:46:06;;;;;;;;;35.75;32.75;;;;;11.94;36.10;102394.22;4977472;28;45342;-50
2022/03/23 03:48:31;;;;;;;;;33.25;29.50;;;;;11.91;35.93;102399.50;4974228;28;45340;-51
2022/03/23 03:50:57;;;;;;;;;38.00;32.25;;;;;11.88;35.92;102396.81;4964810;28;45417;-48
2022/03/23 03:53:22;;;;;;;;;37.25;29.25;;;;;11.84;36.10;102392.41;4963470;28;46461;-49
2022/03/23 03:55:47;;;;;;;;;31.50;29.00;;;;;11.80;36.05;102402.03;4957724;28;45261;-52
2022/03/23 03:58:14;;;;;;;;;36.00;29.00;;;;;11.76;36.18;102407.28;4957497;28;45266;-51
2022/03/23 04:00:39;;;;;;;;;36.50;30.50;;;;;11.73;35.92;102409.91;4957654;28;45516;-50
2022/03/23 04:03:05;;;;;;;;;35.00;30.00;;;;;11.68;35.89;102407.22;4957447;28;45396;-50
2022/03/23 04:05:33;;;;;;;;;36.00;30.75;;;;;11.66;36.04;102408.94;4957722;28;45365;-47
2022/03/23 04:07:59;;;;;;;;;30.50;30.00;;;;;11.60;36.08;102401.03;4958024;28;45230;-51
2022/03/23 04:10:25;;;;;;;;;31.75;29.00;;;;;11.57;35.99;102406.25;4963941;28;45546;-49
2022/03/23 04:12:51;;;;;;;;;30.00;28.00;;;;;11.54;36.03;102407.09;4962323;28;46310;-50
2022/03/23 04:15:16;;;;;;;;;27.25;26.00;;;;;11.49;36.17;102407.06;4957179;28;45245;-50
2022/03/23 04:17:42;;;;;;;;;32.75;30.00;;;;;11.45;36.07;102410.53;4957433;28;45216;-49
2022/03/23 04:20:09;;;;;;;;;29.75;28.50;;;;;11.45;36.06;102421.06;4981295;28;45332;-49
2022/03/23 04:22:34;;;;;;;;;31.75;30.25;;;;;11.44;36.05;102423.69;5000183;27;46000;-49
2022/03/23 04:25:00;;;;;;;;;25.25;25.25;;;;;11.41;36.10;102421.03;4956310;28;45253;-50
2022/03/23 04:27:25;;;;;;;;;31.00;30.25;;;;;11.38;36.11;102416.59;4960329;28;45528;-49
2022/03/23 04:29:50;;;;;;;;;29.00;27.50;;;;;11.35;36.21;102425.38;4960267;28;45233;-51
2022/03/23 04:32:16;;;;;;;;;31.50;30.50;;;;;11.31;36.18;102417.44;4960147;28;45402;-47
2022/03/23 04:34:41;;;;;;;;;35.00;31.25;;;;;11.31;36.11;102420.94;4960418;28;45349;-49
2022/03/23 04:37:07;;;;;;;;;34.25;31.00;;;;;11.29;36.15;102419.16;4960273;28;45573;-48
2022/03/23 04:39:32;;;;;;;;;35.50;31.00;;;;;11.28;36.18;102417.41;4960211;28;45240;-48
2022/03/23 04:41:58;;;;;;;;;30.25;27.50;;;;;11.27;36.05;102415.63;4987680;28;45302;-47
2022/03/23 04:44:23;;;;;;;;;33.25;28.50;;;;;11.22;36.26;102413.84;4971500;28;45245;-48
2022/03/23 04:46:49;;;;;;;;;31.25;29.25;;;;;11.25;36.13;102417.38;4963224;28;45292;-47
2022/03/23 04:49:14;;;;;;;;;32.75;30.25;;;;;11.22;36.39;102420.88;4974165;27;45297;-50
2022/03/23 04:51:40;;;;;;;;;34.00;29.00;;;;;11.23;36.30;102422.59;4972606;28;45351;-46
2022/03/23 04:54:06;;;;;;;;;31.75;30.25;;;;;11.22;36.13;102426.13;4960405;28;45292;-45
2022/03/23 04:56:31;;;;;;;;;34.25;31.75;;;;;11.21;36.21;102427.88;4960268;28;45190;-48
2022/03/23 04:58:57;;;;;;;;;31.50;28.00;;;;;11.19;36.19;102432.25;4959813;28;45488;-49
2022/03/23 05:01:22;;;;;;;;;31.75;28.25;;;;;11.18;36.39;102437.47;4959856;28;47184;-51
2022/03/23 05:03:48;;;;;;;;;33.25;29.50;;;;;11.14;36.20;102423.41;4991575;28;45286;-51
2022/03/23 05:06:13;;;;;;;;;33.50;31.00;;;;;11.16;36.21;102431.31;4967240;28;45320;-48
2022/03/23 05:08:39;;;;;;;;;33.25;31.50;;;;;11.15;36.32;102433.06;4960312;28;45335;-50
2022/03/23 05:11:04;;;;;;;;;31.25;29.25;;;;;11.12;36.29;102433.03;4971815;28;46290;-47
2022/03/23 05:13:30;;;;;;;;;37.50;33.00;;;;;11.12;36.52;102432.13;4960206;28;45296;-51
2022/03/23 05:15:55;;;;;;;;;32.00;27.75;;;;;11.10;36.35;102434.75;4959900;28;45327;-46
2022/03/23 05:18:21;;;;;;;;;79.33;68.00;;;;;11.09;36.36;102430.38;4959811;28;45673;-50
2022/03/23 05:20:47;;;;;;;;;48.50;39.50;;;;;11.06;36.44;102435.59;5016695;28;45535;-47
2022/03/23 05:23:13;;;;;;;;;38.75;33.25;;;;;11.05;36.48;102434.69;4975791;27;45204;-49
2022/03/23 05:25:38;;;;;;;;;36.25;31.25;;;;;11.03;36.61;102436.47;4959683;28;45241;-48
2022/03/23 05:28:06;;;;;;;;;34.75;30.50;;;;;11.03;36.51;102432.91;4959414;28;45224;-50
2022/03/23 05:30:32;;;;;;;;;31.75;29.75;;;;;10.99;36.54;102426.78;4958134;28;47501;-49
2022/03/23 05:32:57;;;;;;;;;29.00;26.75;;;;;10.99;36.73;102432.03;4959521;28;45343;-49
2022/03/23 05:35:23;;;;;;;;;34.50;31.00;;;;;10.98;36.58;102427.63;4959726;28;45361;-49
2022/03/23 05:37:48;;;;;;;;;35.50;32.50;;;;;10.97;36.67;102430.22;4959076;28;45357;-49
2022/03/23 05:40:13;;;;;;;;;40.00;31.25;;;;;10.94;36.75;102431.06;4959203;28;46055;-48
2022/03/23 05:42:40;;;;;;;;;36.25;33.00;;;;;10.93;36.63;102431.97;4959520;28;45256;-50
2022/03/23 05:45:05;;;;;;;;;35.00;31.25;;;;;10.91;36.87;102431.06;4959297;28;45334;-49
2022/03/23 05:47:31;;;;;;;;;38.25;30.75;;;;;10.89;36.86;102443.28;4959691;28;45289;-52
2022/03/23 05:49:56;;;;;;;;;38.00;31.00;;;;;10.89;36.86;102453.81;4959007;28;46198;-46
2022/03/23 05:52:22;;;;;;;;;45.50;36.50;;;;;10.88;36.95;102457.34;4972251;28;45256;-47
2022/03/23 05:54:47;;;;;;;;;45.50;35.75;;;;;10.86;37.01;102469.56;4959612;28;45785;-49
2022/03/23 05:57:13;;;;;;;;;39.50;33.25;;;;;10.82;37.05;102459.88;4959237;28;45408;-48
2022/03/23 05:59:38;;;;;;;;;44.00;36.50;;;;;10.80;37.09;102474.75;4983067;28;45620;-50
2022/03/23 06:02:03;;;;;;;;;40.50;35.00;;;;;10.77;37.13;102475.59;4974002;28;45211;-47
2022/03/23 06:04:29;;;;;;;;;31.50;27.50;;;;;10.71;37.01;102478.16;4959422;28;45190;-46
2022/03/23 06:06:54;;;;;;;;;38.00;34.25;;;;;10.70;36.97;102482.53;4965060;28;45268;-48
2022/03/23 06:09:20;;;;;;;;;42.75;33.00;;;;;10.68;37.04;102480.75;4966531;28;46060;-47
2022/03/23 06:11:45;;;;;;;;;40.50;33.25;;;;;10.66;37.21;102487.72;4957731;28;45317;-51
2022/03/23 06:14:11;;;;;;;;;34.50;30.75;;;;;10.63;37.26;102487.66;4982142;28;45312;-50
2022/03/23 06:16:36;;;;;;;;;24.25;22.75;;;;;10.61;37.08;102489.41;4974867;28;45550;-49
2022/03/23 06:19:02;;;;;;;;;35.75;30.75;;;;;10.57;37.25;102489.34;4959045;28;46358;-50
2022/03/23 06:21:28;;;;;;;;;37.50;33.00;;;;;10.57;37.13;102493.75;5029861;28;45292;-47
2022/03/23 06:23:54;;;;;;;;;35.75;32.25;;;;;10.55;37.22;102491.09;4966976;28;45359;-49
2022/03/23 06:26:19;;;;;;;;;42.50;34.00;;;;;10.53;37.10;102492.81;4958723;28;45334;-48
2022/03/23 06:28:45;;;;;;;;;39.75;33.50;;;;;10.52;37.29;102488.41;4957407;28;48449;-46
2022/03/23 06:31:10;;;;;;;;;35.50;32.00;;;;;10.48;37.10;102480.47;4958740;28;45433;-49
2022/03/23 06:33:35;;;;;;;;;36.25;31.50;;;;;10.50;37.13;102495.41;4958894;28;45493;-51
2022/03/23 06:36:01;;;;;;;;;39.00;33.75;;;;;10.53;37.21;102491.94;4958891;28;45354;-46
2022/03/23 06:38:27;;;;;;;;;39.00;33.00;;;;;10.45;37.21;102480.41;4957741;28;47744;-47
2022/03/23 06:40:53;;;;;;;;;36.00;30.50;;;;;10.52;37.29;102488.41;4973467;28;45277;-48
2022/03/23 06:43:18;;;;;;;;;32.00;30.00;;;;;10.54;37.10;102501.56;4958752;28;45663;-51
2022/03/23 06:45:44;;;;;;;;;33.50;30.00;;;;;10.53;37.20;102494.56;4958635;28;45233;-48
2022/03/23 06:48:10;;;;;;;;;37.25;33.50;;;;;10.54;37.37;102504.19;4964483;28;48122;-51
2022/03/23 06:50:35;;;;;;;;;36.50;31.75;;;;;10.53;37.09;102500.69;4961884;28;45225;-52
2022/03/23 06:53:02;;;;;;;;;35.25;33.25;;;;;10.56;37.25;102505.13;4967775;28;45244;-50
2022/03/23 06:55:27;;;;;;;;;41.00;33.75;;;;;10.53;37.28;102507.72;4958445;28;45486;-48
2022/03/23 06:57:54;;;;;;;;;44.00;33.75;;;;;10.57;37.44;102506.88;4957349;28;47221;-49
2022/03/23 07:00:19;;;;;;;;;36.00;31.75;;;;;10.57;37.51;102514.78;4958291;28;45348;-51
2022/03/23 07:02:46;;;;;;;;;31.50;29.25;;;;;10.59;37.23;102520.94;4958964;28;45313;-47
2022/03/23 07:05:14;;;;;;;;;41.75;34.25;;;;;10.59;37.20;102520.94;4960709;28;45237;-48
2022/03/23 07:09:31;;;;;;;;;42.75;33.00;;;;;10.64;37.46;102529.78;4959542;28;45421;-52
2022/03/23 07:10:29;;;;;;;;;36.25;30.50;;;;;10.65;37.25;102523.63;4965966;28;45963;-50
2022/03/23 07:12:56;;;;;;;;;42.50;33.00;;;;;10.64;37.29;102521.00;4976394;28;45277;-51
2022/03/23 07:15:22;;;;;;;;;40.75;33.50;;;;;10.64;37.30;102516.63;4969242;28;45249;-52
2022/03/23 07:17:47;;;;;;;;;37.75;33.25;;;;;10.71;37.29;102517.59;4957918;28;45244;-53
2022/03/23 07:20:13;;;;;;;;;36.25;33.25;;;;;10.75;37.54;102527.28;4986822;28;45321;-48
2022/03/23 07:22:38;;;;;;;;;53.00;43.25;;;;;10.78;37.46;102526.44;4985997;27;45802;-49
2022/03/23 07:25:05;;;;;;;;;47.00;36.50;;;;;10.77;37.40;102522.03;4966668;28;45223;-48
2022/03/23 07:27:30;;;;;;;;;36.00;33.50;;;;;10.84;37.44;102531.78;4977026;28;46328;-53
2022/03/23 07:29:56;;;;;;;;;43.50;37.00;;;;;10.86;37.59;102532.69;4977406;28;45173;-52
2022/03/23 07:32:21;;;;;;;;;46.50;37.00;;;;;10.91;37.48;102531.00;4979886;28;45249;-51
2022/03/23 07:34:47;;;;;;;;;43.25;36.75;;;;;10.95;37.50;102529.31;4988415;28;45303;-48
2022/03/23 07:37:12;;;;;;;;;40.25;34.00;;;;;10.99;37.54;102537.25;4961855;28;46126;-52
2022/03/23 07:39:38;;;;;;;;;42.25;34.25;;;;;11.03;37.58;102543.41;4976211;28;45276;-49
2022/03/23 07:42:05;;;;;;;;;42.50;35.75;;;;;11.08;37.68;102546.13;4977627;28;45385;-52
2022/03/23 07:44:34;;;;;;;;;36.75;32.25;;;;;11.12;37.58;102548.81;4957730;28;45435;-54
2022/03/23 07:47:00;;;;;;;;;43.50;36.00;;;;;11.17;37.47;102559.38;4956382;28;45414;-50
2022/03/23 07:49:25;;;;;;;;;41.25;34.50;;;;;11.21;37.48;102555.94;4960542;28;45376;-51
2022/03/23 07:51:51;;;;;;;;;43.00;36.25;;;;;11.25;37.53;102556.88;4981525;27;45824;-59
2022/03/23 07:54:16;;;;;;;;;36.25;32.75;;;;;11.30;37.51;102558.66;4973533;28;45343;-59
2022/03/23 07:56:42;;;;;;;;;45.00;36.75;;;;;11.34;37.55;102549.94;4974895;28;46059;-55
2022/03/23 07:59:07;;;;;;;;;43.50;35.50;;;;;11.40;37.57;102558.78;4956019;28;45592;-51
2022/03/23 08:01:33;;;;;;;;;42.25;33.75;;;;;11.42;37.50;102557.03;4957878;28;45400;-51
2022/03/23 08:04:00;;;;;;;;;47.00;34.75;;;;;11.46;37.47;102553.56;4960081;28;45583;-47
2022/03/23 08:06:26;;;;;;;;;41.50;36.00;;;;;11.53;37.55;102563.31;4960274;28;46920;-49
2022/03/23 08:08:52;;;;;;;;;41.75;34.50;;;;;11.58;37.42;102563.38;4960893;28;45284;-50
2022/03/23 08:11:17;;;;;;;;;44.75;34.25;;;;;11.64;37.50;102566.94;4972047;28;45214;-53
2022/03/23 08:13:43;;;;;;;;;42.75;33.75;;;;;11.70;37.47;102564.38;4971537;28;45287;-53
2022/03/23 08:16:09;;;;;;;;;39.50;33.25;;;;;11.76;37.56;102563.56;4960291;28;45202;-53
2022/03/23 08:18:35;;;;;;;;;40.50;32.25;;;;;11.80;37.16;102569.75;4960495;28;45221;-52
2022/03/23 08:21:00;;;;;;;;;39.75;32.75;;;;;11.87;37.43;102567.19;5016307;28;45536;-51
2022/03/23 08:23:26;;;;;;;;;37.00;31.75;;;;;11.93;37.41;102568.97;4970959;28;45480;-57
2022/03/23 08:25:52;;;;;;;;;30.00;28.25;;;;;12.00;37.38;102567.34;4959919;28;46235;-51
2022/03/23 08:28:18;;;;;;;;;28.00;27.50;;;;;12.07;37.22;102573.53;4958749;28;45369;-51
2022/03/23 08:30:45;;;;;;;;;28.00;26.00;;;;;11.84;37.33;102519.72;4960304;28;45414;-48
2022/03/23 08:33:11;;;;;;;;;28.00;25.75;;;;;12.19;37.19;102574.50;4942788;28;45250;-47
2022/03/23 08:35:37;;;;;;;;;26.75;26.00;;;;;12.27;37.07;102574.56;4958619;27;45788;-49
2022/03/23 08:38:04;;;;;;;;;25.00;24.75;;;;;12.29;37.12;102564.94;4960183;28;46555;-50
2022/03/23 08:40:29;;;;;;;;;29.50;26.25;;;;;12.40;37.14;102572.94;4959979;28;45268;-52
2022/03/23 08:42:57;;;;;;;;;28.25;24.75;;;;;12.47;37.03;102573.84;4958574;28;45459;-50
2022/03/23 08:45:22;;;;;;;;;26.25;23.50;;;;;12.54;37.19;102570.41;4959901;28;46125;-48
2022/03/23 08:47:49;;;;;;;;;29.25;26.75;;;;;12.61;36.98;102572.16;4960176;28;45363;-49
2022/03/23 08:50:14;;;;;;;;;25.75;24.50;;;;;12.68;36.71;102575.75;4959708;28;45696;-48
2022/03/23 08:52:41;;;;;;;;;27.50;24.25;;;;;12.77;37.00;102570.53;4971886;28;45485;-49
2022/03/23 08:55:09;;;;;;;;;25.50;25.50;;;;;12.83;37.16;102570.56;4959676;28;46378;-49
2022/03/23 08:57:36;;;;;;;;;29.50;25.75;;;;;12.95;37.00;102572.38;4959985;28;45264;-52
2022/03/23 09:00:04;;;;;;;;;33.00;29.75;;;;;13.01;36.85;102569.75;4959556;28;45297;-49
2022/03/23 09:02:30;;;;;;;;;26.25;26.00;;;;;13.10;36.76;102571.56;4958609;28;45538;-51
2022/03/23 09:04:55;;;;;;;;;29.50;26.00;;;;;13.19;36.67;102569.84;4958254;28;47579;-54
2022/03/23 09:07:21;;;;;;;;;27.50;25.75;;;;;13.27;37.05;102571.66;4971578;28;45344;-52
2022/03/23 09:09:46;;;;;;;;;30.75;26.50;;;;;13.37;36.64;102569.97;4972594;28;45417;-48
2022/03/23 09:12:11;;;;;;;;;23.75;22.50;;;;;13.46;36.60;102564.69;4973816;28;45704;-51
2022/03/23 09:14:37;;;;;;;;;30.25;28.25;;;;;13.56;36.73;102565.59;4959355;28;46128;-52
2022/03/23 09:17:03;;;;;;;;;31.50;28.25;;;;;13.65;36.81;102570.91;4959667;28;45351;-52
2022/03/23 09:19:29;;;;;;;;;30.00;26.75;;;;;13.79;36.90;102560.34;4958430;28;45411;-47
2022/03/23 09:21:54;;;;;;;;;30.50;27.75;;;;;13.90;36.54;102554.19;5024521;28;45497;-50
2022/03/23 09:24:20;;;;;;;;;30.75;27.25;;;;;14.07;36.80;102564.78;4962946;28;45977;-50
2022/03/23 09:26:46;;;;;;;;;27.50;27.25;;;;;14.20;36.69;102569.19;4959686;28;45229;-48
2022/03/23 09:29:12;;;;;;;;;26.00;26.00;;;;;14.34;36.29;102566.53;4959351;28;45229;-49
2022/03/23 09:31:38;;;;;;;;;27.00;25.50;;;;;14.52;36.35;102568.28;4958024;28;45533;-52
2022/03/23 09:34:05;;;;;;;;;25.75;24.00;;;;;14.67;36.16;102566.53;4988463;28;46228;-48
2022/03/23 09:39:16;;;;;;;;;26.50;23.25;;;;;14.99;36.55;102562.91;4959351;28;45273;-51
2022/03/23 09:41:43;;;;;;;;;28.25;26.00;;;;;15.15;36.13;102555.78;4959286;28;45308;-53
2022/03/23 09:44:10;;;;;;;;;27.75;26.00;;;;;15.30;36.58;102560.13;4972078;28;45405;-53
2022/03/23 09:46:35;;;;;;;;;27.75;24.50;;;;;15.47;36.46;102562.66;4984659;28;45401;-55
2022/03/23 09:49:01;;;;;;;;;21.25;19.50;;;;;15.64;36.11;102570.53;4959240;28;45247;-52
2022/03/23 09:51:31;;;;;;;;;30.00;26.50;;;;;15.80;36.06;102558.94;4970309;28;45497;-51
2022/03/23 09:53:58;;;;;;;;;29.00;25.50;;;;;15.96;36.28;102565.03;4960227;28;45741;-51
2022/03/23 09:56:23;;;;;;;;;29.75;27.00;;;;;16.19;36.40;102562.19;4959090;28;45178;-53
2022/03/23 09:58:48;;;;;;;;;27.00;25.00;;;;;16.42;36.13;102561.09;4959002;28;45324;-48
2022/03/23 10:01:29;;;;;;;;;25.75;25.25;;;;;16.70;36.10;102564.34;4959133;28;45322;-51
2022/03/23 10:04:27;;;;;;;;;28.75;22.50;;;;;16.95;36.29;102565.88;4958998;28;46244;-48
2022/03/23 10:07:11;;;;;;;;;23.50;21.50;;;;;17.17;35.85;102562.03;4959255;28;45375;-54
2022/03/23 10:10:14;;;;;;;;;22.50;18.25;;;;;17.34;35.98;102560.94;4959283;28;45447;-53
2022/03/23 10:13:31;;;;;;;;;20.50;20.50;;;;;17.51;35.65;102558.06;4966119;28;45447;-53
2022/03/23 10:16:43;;;;;;;;;23.75;22.50;;;;;17.67;35.74;102559.59;4970530;28;47077;-52
2022/03/23 10:19:09;;;;;;;;;23.50;22.75;;;;;17.81;35.66;102554.03;4958950;28;45280;-52
2022/03/23 10:21:36;;;;;;;;;20.00;17.75;;;;;17.93;35.45;102544.13;5022065;28;45653;-54
2022/03/23 10:24:02;;;;;;;;;24.00;21.75;;;;;18.05;35.24;102546.59;4965120;28;45356;-54
2022/03/23 10:26:33;;;;;;;;;21.00;18.25;;;;;18.17;35.10;102549.03;4958837;28;45878;-54
2022/03/23 10:28:59;;;;;;;;;23.50;21.50;;;;;18.30;35.45;102552.38;4958578;28;45426;-54
2022/03/23 10:31:26;;;;;;;;;21.00;18.00;;;;;18.41;35.07;102540.66;4958896;28;45333;-54
2022/03/23 10:33:58;;;;;;;;;20.75;19.25;;;;;18.54;35.33;102542.19;4958559;28;45342;-53
2022/03/23 10:36:27;;;;;;;;;25.50;22.25;;;;;18.63;35.40;102539.31;4958604;28;46176;-52
2022/03/23 10:38:59;;;;;;;;;20.75;17.75;;;;;18.77;34.77;102539.06;4958538;28;45312;-51
2022/03/23 10:41:26;;;;;;;;;18.50;17.75;;;;;18.90;34.91;102538.81;4967441;28;45317;-51
2022/03/23 10:43:51;;;;;;;;;23.50;21.00;;;;;19.03;34.66;102529.69;4973761;28;45540;-53
2022/03/23 10:46:17;;;;;;;;;22.75;21.50;;;;;19.14;34.81;102530.34;4957242;28;47527;-55
2022/03/23 10:49:11;;;;;;;;;17.50;17.00;;;;;19.35;34.54;102524.56;4958416;28;45440;-55
2022/03/23 10:51:37;;;;;;;;;24.50;21.00;;;;;19.49;34.44;102528.63;4955737;28;45538;-54
2022/03/23 10:54:23;;;;;;;;;18.25;18.25;;;;;19.65;34.34;102526.47;4974683;28;45461;-56
2022/03/23 10:56:50;;;;;;;;;23.00;19.75;;;;;19.85;34.09;102519.81;4962329;28;46198;-59
2022/03/23 10:59:25;;;;;;;;;23.50;19.25;;;;;20.04;34.51;102517.56;4974112;28;45403;-58
2022/03/23 11:02:04;;;;;;;;;21.50;20.00;;;;;20.28;34.03;102517.84;4966907;28;45234;-58
2022/03/23 11:04:42;;;;;;;;;24.00;20.50;;;;;20.56;33.89;102519.72;4983880;28;45411;-58
2022/03/23 11:07:22;;;;;;;;;19.00;18.25;;;;;20.85;34.23;102513.56;4966787;28;45424;-59
2022/03/23 11:18:09;;;;;;;;;21.75;19.25;;;;;22.66;34.04;102510.31;4969789;28;45246;-48
2022/03/23 11:20:55;;;;;;;;;23.50;19.75;;;;;23.14;34.32;102491.53;4974114;28;45339;-54
2022/03/23 11:23:35;;;;;;;;;24.75;22.75;;;;;23.65;34.44;102493.06;4966177;28;45359;-56
2022/03/23 11:26:05;;;;;;;;;25.25;22.75;;;;;24.20;34.40;102493.44;4968038;28;45381;-49
2022/03/23 11:28:38;;;;;;;;;24.00;22.50;;;;;24.77;33.95;102493.59;4966964;28;45344;-51